MDHE/HEX METAR and TAF weather

Enter ICAO airport designator
Station Type Date Time Source
MDHE METAR 2012/04/08 12:00 UTC NOAA

MDHE 081200Z 27004KT 9999 FEW017 BKN090 23/22 Q1017


Station Type Date Time Source
MDHE Decoded METAR 2012/04/08 12:00 UTC NOAA

Herrera, Dominican Republic (MDHE) 18-28N 069-58W
Apr 08, 2012 - 08:00 AM EDT / 2012.04.08 1200 UTC
Wind: from the W (270 degrees) at 5 MPH (4 KT):0
Visibility: greater than 7 mile(s):0
Sky conditions: mostly cloudy
Temperature: 73 F (23 C)
Dew Point: 71 F (22 C)
Relative Humidity: 94%
Pressure (altimeter): 30.03 in. Hg (1017 hPa)
ob: MDHE 081200Z 27004KT 9999 FEW017 BKN090 23/22 Q1017
cycle: 12

Station Type Date Time Source
MDHE TAF UTC NOAA

Error!


Example: see airport list